Flight Track Log - Related Links

Times and Time Zones

All times are in EDT time to prevent confusion due to time zone crossing. See the FLG3651 flight status page for this flight to view local times or setup timezone preferences in your user account.

Time Position Orientation Groundspeed Altitude Reporting Facility
EDT Latitude Longitude Course Direction KTS MPH feet Rate Location/Type
Thu 11:50:05 AM 39.0333 -84.6667 90° East 153 176 1,500  Level Cincinnati TRACON
Thu 11:51:30 AM 39.0333 -84.5667 90° East 267 307 3,600 1,985 Climbing Cincinnati TRACON
Thu 11:52:18 AM 39.0500 -84.5000 72° East 291 335 5,900 2,464 Climbing Cincinnati TRACON
Thu 11:54:18 AM 39.1100 -84.2942 69° East 311 358 10,500 2,077 Climbing Indianapolis Center
Thu 11:55:20 AM 39.1397 -84.1744 72° East 345 397 12,200 1,659 Climbing Indianapolis Center
Thu 11:56:21 AM 39.1722 -84.0458 72° East 371 427 13,900 1,463 Climbing Indianapolis Center
Thu 11:57:23 AM 39.2128 -83.9128 68° East 396 456 15,200 1,161 Climbing Indianapolis Center
Thu 11:58:25 AM 39.2669 -83.7736 63° Northeast 426 490 16,300 1,171 Climbing Indianapolis Center
Thu 11:59:26 AM 39.3214 -83.6275 64° Northeast 446 513 17,600 1,171 Climbing Indianapolis Center
Thu 12:00:28 PM 39.3767 -83.4811 64° Northeast 452 520 18,700 1,016 Climbing Indianapolis Center
Thu 12:01:30 PM 39.4428 -83.3047 64° Northeast 465 535 19,700 878 Climbing Indianapolis Center
Thu 12:02:31 PM 39.5006 -83.1514 64° Northeast 471 542 20,500 780 Climbing Indianapolis Center
Thu 12:03:33 PM 39.5592 -82.9961 64° Northeast 479 551 21,300 1,113 Climbing Indianapolis Center
Thu 12:04:35 PM 39.6086 -82.8381 68° East 474 545 22,800 1,355 Climbing Indianapolis Center
Thu 12:05:37 PM 39.6225 -82.6753 84° East 455 524 24,100 1,073 Climbing Indianapolis Center
Thu 12:06:38 PM 39.6350 -82.5119 84° East 453 521 25,000 829 Climbing Indianapolis Center
Thu 12:07:40 PM 39.6475 -82.3486 84° East 453 521 25,800 726 Climbing Indianapolis Center
Thu 12:08:42 PM 39.6594 -82.1853 85° East 453 521 26,500 732 Climbing Indianapolis Center
Thu 12:09:43 PM 39.6731 -82.0139 84° East 462 532 27,300 829 Climbing Indianapolis Center
Thu 12:10:45 PM 39.6858 -81.8514 84° East 453 521 28,200 829 Climbing Indianapolis Center
Thu 12:11:46 PM 39.6997 -81.6561 85° East 450 518 29,000 444 Climbing Indianapolis Center
Thu 12:12:33 PM 39.7089 -81.5275 85° East 454 522 29,000  Level Cleveland Center
Thu 12:13:33 PM 39.7289 -81.3606 81° East 459 528 29,000  Level Cleveland Center
Thu 12:14:33 PM 39.7675 -81.1933 73° East 464 534 29,000  Level Cleveland Center
Thu 12:15:33 PM 39.8078 -81.0264 73° East 470 541 29,000  Level Cleveland Center
Thu 12:16:33 PM 39.8481 -80.8589 73° East 475 547 29,000  Level Cleveland Center
Thu 12:17:33 PM 39.8900 -80.6914 72° East 480 552 29,000  Level Cleveland Center
Thu 12:18:33 PM 39.9317 -80.5153 73° East 485 558 29,000  Level Cleveland Center
Thu 12:19:33 PM 39.9711 -80.3447 73° East 485 558 29,000  Level Cleveland Center
Thu 12:21:33 PM 40.0553 -80.0000 72° East 491 565 29,000  Level Cleveland Center
Thu 12:22:33 PM 40.0958 -79.8258 73° East 496 571 29,000  Level Cleveland Center
Thu 12:23:33 PM 40.1342 -79.6517 74° East 496 571 29,000  Level Cleveland Center
Thu 12:24:33 PM 40.1661 -79.4747 77° East 496 571 29,000  Level Cleveland Center
Thu 12:25:33 PM 40.1811 -79.3303 82° East 491 565 29,000  Level Cleveland Center
Thu 12:26:33 PM 40.1978 -79.1369 83° East 485 558 29,000  Level Cleveland Center
Thu 12:27:33 PM 40.2161 -78.9572 82° East 485 558 29,000  Level Cleveland Center
Thu 12:28:33 PM 40.2322 -78.7800 83° East 485 558 29,000 -450 Level Cleveland Center
Thu 12:29:33 PM 40.2539 -78.5808 82° East 492 566 28,100 -950 Descending Cleveland Center
Thu 12:30:33 PM 40.2694 -78.4036 83° East 492 566 27,100 -935 Descending Cleveland Center
Thu 12:32:52 PM 40.3089 -78.0036 83° East 502 578 25,000 -630 Descending New York Center
Thu 12:33:53 PM 40.3119 -77.8158 89° East 502 578 25,000  Level New York Center
Thu 12:34:54 PM 40.2994 -77.6350 95° East 502 578 25,000 -446 Level New York Center
Thu 12:35:54 PM 40.2792 -77.4453 98° East 508 585 24,100 -966 Descending New York Center
Thu 12:36:52 PM 40.2556 -77.2689 100° East 508 585 23,100 -1,017 Descending New York Center
Thu 12:37:52 PM 40.2400 -77.0933 97° East 494 568 22,100 -1,279 Descending New York Center
Thu 12:38:54 PM 40.2203 -76.9175 98° East 488 562 20,500 -1,869 Descending New York Center
Thu 12:39:54 PM 40.1986 -76.7306 99° East 482 555 18,300 -1,983 Descending New York Center
Thu 12:40:52 PM 40.1794 -76.5686 99° East 466 536 16,600 -1,714 Descending New York Center
Thu 12:41:53 PM 40.1622 -76.4097 98° East 452 520 14,900 -1,870 Descending New York Center
Thu 12:42:09 PM 40.1556 -76.3611 100° East 439 505 14,200 -1,833 Descending FAA TRACON SMA TRACON (SMA)
Thu 12:42:29 PM 40.1500 -76.3153 99° East 436 502 13,800 -1,500 Descending FAA TRACON SMA TRACON (SMA)
Thu 12:42:49 PM 40.1450 -76.2594 97° East 417 480 13,200 -878 Descending FAA TRACON SMA TRACON (SMA)
Thu 12:43:10 PM 40.1392 -76.2169 100° East 362 417 13,200 -300 Level FAA TRACON SMA TRACON (SMA)
Thu 12:43:29 PM 40.1342 -76.1786 100° East 340 391 13,000 -1,200 Descending FAA TRACON SMA TRACON (SMA)
Thu 12:43:50 PM 40.1308 -76.1408 97° East 349 402 12,400 -2,100 Descending FAA TRACON SMA TRACON (SMA)
Thu 12:44:09 PM 40.1242 -76.0978 101° East 337 388 11,600 -2,000 Descending FAA TRACON SMA TRACON (SMA)
Thu 12:44:29 PM 40.1203 -76.0594 98° East 335 386 11,100 -1,463 Descending FAA TRACON SMA TRACON (SMA)
Thu 12:44:50 PM 40.1153 -76.0214 100° East 333 383 10,600 -1,610 Descending FAA TRACON SMA TRACON (SMA)
Thu 12:45:10 PM 40.1100 -75.9767 99° East 328 377 10,000 -1,538 Descending FAA TRACON SMA TRACON (SMA)
Thu 12:45:29 PM 40.1058 -75.9408 99° East 325 374 9,600 -1,385 Descending FAA TRACON SMA TRACON (SMA)
Thu 12:45:49 PM 40.1011 -75.9058 100° East 321 369 9,100 -1,317 Descending FAA TRACON SMA TRACON (SMA)
Thu 12:46:10 PM 40.0969 -75.8642 97° East 316 364 8,700 -1,050 Descending FAA TRACON SMA TRACON (SMA)
Thu 12:46:29 PM 40.0922 -75.8286 100° East 312 359 8,400 -923 Descending FAA TRACON SMA TRACON (SMA)
Thu 12:46:49 PM 40.0881 -75.7953 99° East 306 352 8,100 -585 Descending FAA TRACON SMA TRACON (SMA)
Thu 12:47:10 PM 40.0828 -75.7542 100° East 301 346 8,000 -150 Descending FAA TRACON SMA TRACON (SMA)
Thu 12:47:29 PM 40.0839 -75.7231 87° East 286 329 8,000  Level FAA TRACON SMA TRACON (SMA)
Thu 12:47:49 PM 40.0944 -75.6903 67° East 273 314 8,000  Level FAA TRACON SMA TRACON (SMA)
Thu 12:48:09 PM 40.1056 -75.6606 64° Northeast 275 316 8,000  Level FAA TRACON SMA TRACON (SMA)
Thu 12:48:29 PM 40.1144 -75.6322 68° East 273 314 8,000 -300 Level FAA TRACON SMA TRACON (SMA)
Thu 12:48:49 PM 40.1236 -75.6053 66° East 268 308 7,800 -878 Descending FAA TRACON SMA TRACON (SMA)
Thu 12:49:10 PM 40.1350 -75.5714 66° East 264 304 7,400 -1,050 Descending FAA TRACON SMA TRACON (SMA)
Thu 12:49:29 PM 40.1386 -75.5425 81° East 263 303 7,100 -1,077 Descending FAA TRACON SMA TRACON (SMA)
Thu 12:49:49 PM 40.1336 -75.5144 103° East 267 307 6,700 -1,171 Descending FAA TRACON SMA TRACON (SMA)
Thu 12:50:10 PM 40.1181 -75.4853 125° Southeast 257 296 6,300 -900 Descending FAA TRACON SMA TRACON (SMA)
Thu 12:50:29 PM 40.1011 -75.4653 138° Southeast 258 297 6,100 -462 Descending FAA TRACON SMA TRACON (SMA)
Thu 12:50:49 PM 40.0858 -75.4453 135° Southeast 253 291 6,000 -150 Descending FAA TRACON SMA TRACON (SMA)
Thu 12:51:09 PM 40.0658 -75.4247 142° Southeast 248 285 6,000  Level FAA TRACON SMA TRACON (SMA)
Thu 12:51:30 PM 40.0478 -75.4158 159° South 232 267 6,000  Level FAA TRACON SMA TRACON (SMA)
Thu 12:51:49 PM 40.0272 -75.4086 165° South 232 267 6,000  Level FAA TRACON SMA TRACON (SMA)
Thu 12:52:09 PM 40.0025 -75.4011 167° South 235 270 6,000  Level FAA TRACON SMA TRACON (SMA)
Thu 12:52:29 PM 39.9839 -75.3950 166° South 226 260 6,000  Level FAA TRACON SMA TRACON (SMA)
Thu 12:53:09 PM 39.9458 -75.3872 171° South 211 243 6,000  Level FAA TRACON SMA TRACON (SMA)
Thu 12:53:29 PM 39.9333 -75.3981 214° Southwest 189 217 6,000  Level FAA TRACON SMA TRACON (SMA)
Thu 12:53:49 PM 39.9269 -75.4186 248° West 183 211 6,000  Level FAA TRACON SMA TRACON (SMA)
Thu 12:54:09 PM 39.9214 -75.4433 254° West 185 213 6,000  Level FAA TRACON SMA TRACON (SMA)
Thu 12:54:30 PM 39.9175 -75.4606 254° West 173 199 6,000  Level FAA TRACON SMA TRACON (SMA)
Thu 12:54:50 PM 39.9133 -75.4783 253° West 168 193 6,000  Level FAA TRACON SMA TRACON (SMA)
Thu 12:55:09 PM 39.9083 -75.4989 252° West 157 181 6,000  Level FAA TRACON SMA TRACON (SMA)
Thu 12:55:29 PM 39.9044 -75.5153 253° West 157 181 6,000  Level FAA TRACON SMA TRACON (SMA)
Thu 12:55:49 PM 39.9008 -75.5325 255° West 156 180 6,000 -293 Level FAA TRACON SMA TRACON (SMA)
Thu 12:56:10 PM 39.8969 -75.5539 257° West 157 181 5,800 -600 Descending FAA TRACON SMA TRACON (SMA)
Thu 12:56:29 PM 39.8931 -75.5717 254° West 163 188 5,600 -462 Descending FAA TRACON SMA TRACON (SMA)
Thu 12:56:49 PM 39.8892 -75.5897 254° West 169 194 5,500 -439 Descending FAA TRACON SMA TRACON (SMA)
Thu 12:57:10 PM 39.8842 -75.6131 254° West 171 197 5,300 -600 Descending FAA TRACON SMA TRACON (SMA)
Thu 12:57:29 PM 39.8803 -75.6322 255° West 172 198 5,100 -462 Descending FAA TRACON SMA TRACON (SMA)
Thu 12:57:49 PM 39.8764 -75.6506 255° West 172 198 5,000 -150 Descending FAA TRACON SMA TRACON (SMA)
Thu 12:58:09 PM 39.8681 -75.6658 235° Southwest 186 214 5,000 -300 Level FAA TRACON SMA TRACON (SMA)
Thu 12:58:29 PM 39.8500 -75.6633 174° South 186 214 4,800 -750 Descending FAA TRACON SMA TRACON (SMA)
Thu 12:58:49 PM 39.8367 -75.6469 137° Southeast 188 216 4,500 -900 Descending FAA TRACON SMA TRACON (SMA)
Thu 12:59:09 PM 39.8294 -75.6261 114° Southeast 189 217 4,200 -714 Descending FAA TRACON SMA TRACON (SMA)
Thu 12:59:31 PM 39.8247 -75.6064 107° East 183 211 4,000 -300 Descending FAA TRACON SMA TRACON (SMA)
Thu 12:59:49 PM 39.8197 -75.5897 111° Southeast 179 206 4,000  Level FAA TRACON SMA TRACON (SMA)
Thu 01:00:09 PM 39.8144 -75.5644 105° East 176 203 4,000  Level FAA TRACON SMA TRACON (SMA)
Thu 01:00:29 PM 39.8094 -75.5458 109° East 179 206 4,000  Level FAA TRACON SMA TRACON (SMA)
Thu 01:00:50 PM 39.8108 -75.5256 85° East 178 205 4,000 -600 Level FAA TRACON SMA TRACON (SMA)
Thu 01:01:09 PM 39.8153 -75.5008 77° East 183 211 3,600 -1,050 Descending FAA TRACON SMA TRACON (SMA)
Thu 01:01:30 PM 39.8192 -75.4814 75° East 178 205 3,300 -900 Descending FAA TRACON SMA TRACON (SMA)
Thu 01:01:49 PM 39.8225 -75.4647 75° East 168 193 3,000 -900 Descending FAA TRACON SMA TRACON (SMA)
Thu 01:02:10 PM 39.8278 -75.4414 74° East 170 196 2,700 -878 Descending FAA TRACON SMA TRACON (SMA)
Thu 01:02:30 PM 39.8311 -75.4228 77° East 169 194 2,400 -923 Descending FAA TRACON SMA TRACON (SMA)
Thu 01:02:49 PM 39.8342 -75.4053 77° East 168 193 2,100 -750 Descending FAA TRACON SMA TRACON (SMA)
Thu 01:03:10 PM 39.8392 -75.3833 73° East 158 182 1,900 -900 Descending FAA TRACON SMA TRACON (SMA)
Thu 01:03:29 PM 39.8422 -75.3686 75° East 142 163 1,500 -923 Descending FAA TRACON SMA TRACON (SMA)
Thu 01:03:49 PM 39.8450 -75.3542 76° East 138 159 1,300 -750 Descending FAA TRACON SMA TRACON (SMA)
Thu 01:04:09 PM 39.8486 -75.3356 76° East 137 158 1,000 -585 Descending FAA TRACON SMA TRACON (SMA)
Thu 01:04:30 PM 39.8517 -75.3206 75° East 137 158 900 -439 Descending FAA TRACON SMA TRACON (SMA)
Thu 01:04:50 PM 39.8547 -75.3094 70° East 135 155 700 -750 Descending FAA TRACON SMA TRACON (SMA)
Thu 01:05:10 PM 39.8575 -75.2925 78° East 128 147 400 -750 Descending FAA TRACON SMA TRACON (SMA)
Thu 01:05:30 PM 39.8600 -75.2792 76° East 127 146 200 -600 Descending FAA TRACON SMA TRACON (SMA)
Thu 01:07:00 PM 39.8667 -75.2333 57° Northeast  Level FlightAware Approximate

Login

Don't have an account? Register now (free) for customized features, flight alerts, and more!